Time;durP1;ratioP1;P1;durP2;ratioP2;P2;SDS_P1;SDS_P2;PMS_P1;PMS_P2;Temp;Humidity;BMP_temperature;BMP_pressure;BME280_temperature;BME280_humidity;BME280_pressure;Samples;Min_cycle;Max_cycle;Signal;HPM_P1;HPM_P2
2023/11/07 00:00:45;;;;;;;6.00;1.75;;;;;;;7.34;95.13;99509.19;10464385;28;20051;-79
2023/11/07 00:05:49;;;;;;;3.65;1.85;;;;;;;7.34;93.85;99518.03;10476506;28;20048;-80
2023/11/07 00:10:52;;;;;;;4.75;1.70;;;;;;;7.34;94.16;99528.72;10454542;28;20044;-82
2023/11/07 00:15:56;;;;;;;9.13;1.90;;;;;;;7.35;94.25;99522.44;10452996;28;20057;-81
2023/11/07 00:20:59;;;;;;;8.07;1.98;;;;;;;7.40;93.49;99524.72;10460159;28;20467;-83
2023/11/07 00:26:02;;;;;;;5.05;1.88;;;;;;;7.29;94.42;99533.59;10455398;28;20093;-78
2023/11/07 00:31:07;;;;;;;6.03;2.13;;;;;;;7.47;93.50;99526.75;10462509;28;20045;-81
2023/11/07 00:36:12;;;;;;;7.95;1.85;;;;;;;7.43;93.57;99536.03;10466674;28;20059;-82
2023/11/07 00:41:15;;;;;;;5.57;1.85;;;;;;;7.36;94.55;99532.13;10443640;28;20053;-81
2023/11/07 00:46:20;;;;;;;5.18;2.60;;;;;;;7.41;94.15;99550.47;10446010;28;20109;-83
2023/11/07 00:51:22;;;;;;;4.80;2.00;;;;;;;7.39;94.54;99545.25;10456099;28;20616;-78
2023/11/07 00:56:25;;;;;;;5.45;1.95;;;;;;;7.42;94.44;99550.34;10442827;28;20052;-81
2023/11/07 01:01:31;;;;;;;7.43;2.72;;;;;;;7.28;94.74;99550.59;10448074;28;20784;-82
2023/11/07 01:06:34;;;;;;;5.88;2.25;;;;;;;7.44;93.65;99560.91;10446262;28;20041;-81
2023/11/07 01:11:38;;;;;;;8.05;2.05;;;;;;;7.76;92.15;99557.41;10439494;28;21133;-81
2023/11/07 01:16:42;;;;;;;7.95;2.80;;;;;;;7.95;90.58;99557.59;10441901;28;20275;-81
2023/11/07 01:21:45;;;;;;;9.30;2.40;;;;;;;7.85;91.04;99562.03;10458660;28;20059;-83
2023/11/07 01:26:48;;;;;;;5.07;1.67;;;;;;;7.82;91.54;99565.78;10439867;28;20049;-81
2023/11/07 01:31:52;;;;;;;7.43;2.17;;;;;;;7.74;91.57;99581.63;10451828;28;20040;-82
2023/11/07 01:36:55;;;;;;;9.38;2.25;;;;;;;7.97;89.67;99584.22;10447343;28;20051;-79
2023/11/07 01:41:58;;;;;;;9.25;2.05;;;;;;;7.84;90.63;99568.31;10447342;28;20044;-80
2023/11/07 01:47:03;;;;;;;5.38;2.00;;;;;;;7.64;91.78;99578.84;10439711;28;20048;-80
2023/11/07 01:52:06;;;;;;;5.53;2.28;;;;;;;7.74;91.03;99584.28;10447680;28;20041;-81
2023/11/07 01:57:10;;;;;;;7.38;2.90;;;;;;;7.68;92.23;99582.13;10444035;28;20135;-80
2023/11/07 02:02:18;;;;;;;3.47;1.88;;;;;;;7.67;92.09;99580.41;10451846;28;20594;-83
2023/11/07 02:07:21;;;;;;;8.95;3.03;;;;;;;7.85;90.76;99572.72;10450650;28;20246;-82
2023/11/07 02:12:24;;;;;;;5.10;2.35;;;;;;;7.79;90.95;99581.22;10442963;28;20055;-81
2023/11/07 02:17:29;;;;;;;7.38;2.00;;;;;;;7.72;91.18;99578.22;10455273;28;20102;-82
2023/11/07 02:22:32;;;;;;;5.70;2.25;;;;;;;7.83;90.93;99574.66;10447551;28;20040;-79
2023/11/07 02:27:37;;;;;;;5.32;1.77;;;;;;;7.76;91.82;99568.94;10442425;28;20055;-80
2023/11/07 02:32:40;;;;;;;8.10;1.90;;;;;;;7.80;91.63;99582.94;10451123;28;20033;-82
2023/11/07 02:37:50;;;;;;;5.75;1.80;;;;;;;7.65;91.65;99585.03;10445449;28;20059;-80
2023/11/07 02:42:54;;;;;;;5.80;1.88;;;;;;;7.90;90.59;99571.34;10470011;28;20048;-78
2023/11/07 02:47:57;;;;;;;8.93;1.95;;;;;;;7.81;90.35;99574.78;10464792;28;20064;-80
2023/11/07 02:53:00;;;;;;;9.98;2.00;;;;;;;7.58;92.46;99591.84;10449833;28;20041;-80
2023/11/07 02:58:05;;;;;;;4.28;2.08;;;;;;;7.64;91.84;99584.19;10457358;28;20048;-79
2023/11/07 03:03:08;;;;;;;6.32;3.47;;;;;;;7.89;90.05;99582.16;10476958;28;20062;-78
2023/11/07 03:08:12;;;;;;;4.47;1.95;;;;;;;7.55;92.67;99579.59;10472932;28;20284;-80
2023/11/07 03:13:18;;;;;;;10.55;1.83;;;;;;;7.73;91.36;99572.75;10463567;28;20056;-78
2023/11/07 03:18:21;;;;;;;6.18;1.67;;;;;;;7.84;90.17;99573.69;10465714;28;20048;-80
2023/11/07 03:23:25;;;;;;;2.92;1.30;;;;;;;7.59;91.49;99583.69;10449841;28;20082;-80
2023/11/07 03:28:32;;;;;;;7.57;1.83;;;;;;;7.79;90.70;99576.75;10452464;28;20072;-80
2023/11/07 03:33:35;;;;;;;5.97;1.90;;;;;;;7.80;90.52;99574.91;10450833;28;20159;-79
2023/11/07 03:38:40;;;;;;;3.95;1.60;;;;;;;7.68;90.52;99584.81;10448139;28;20052;-79
2023/11/07 03:43:44;;;;;;;5.65;1.88;;;;;;;7.69;90.28;99586.50;10453390;28;20112;-78
2023/11/07 03:48:47;;;;;;;8.90;2.28;;;;;;;7.81;89.99;99574.78;10452958;28;20078;-79
2023/11/07 03:53:50;;;;;;;6.32;1.70;;;;;;;7.66;91.19;99600.94;10450791;28;20055;-79
2023/11/07 03:58:54;;;;;;;4.32;1.80;;;;;;;7.86;89.88;99601.97;10473325;28;20059;-78
2023/11/07 04:03:57;;;;;;;7.78;2.58;;;;;;;7.92;88.77;99593.44;10469721;28;20056;-80
2023/11/07 04:09:00;;;;;;;5.47;1.65;;;;;;;8.06;87.78;99610.19;10461136;28;20098;-80
2023/11/07 04:14:05;;;;;;;3.03;1.20;;;;;;;8.09;87.78;99607.25;10459565;28;20066;-80
2023/11/07 04:19:08;;;;;;;3.40;1.23;;;;;;;7.99;88.34;99603.66;10444556;28;20052;-79
2023/11/07 04:24:12;;;;;;;3.03;0.73;;;;;;;8.29;85.82;99609.13;10451951;28;20059;-80
2023/11/07 04:29:17;;;;;;;3.47;1.08;;;;;;;8.30;86.16;99624.19;10455103;28;20056;-78
2023/11/07 04:34:20;;;;;;;7.50;1.67;;;;;;;8.11;86.68;99607.97;10463988;28;20060;-80
2023/11/07 04:39:23;;;;;;;1.92;0.77;;;;;;;7.99;87.17;99611.69;10459753;28;20177;-79
2023/11/07 04:44:27;;;;;;;3.65;0.90;;;;;;;8.14;86.60;99619.25;10460958;28;20715;-80
2023/11/07 04:49:30;;;;;;;5.18;0.93;;;;;;;8.03;87.32;99616.63;10458624;28;20060;-78
2023/11/07 04:54:33;;;;;;;1.63;0.80;;;;;;;8.23;85.86;99608.78;10459308;28;20041;-80
2023/11/07 04:59:38;;;;;;;2.58;0.73;;;;;;;8.21;86.65;99610.75;10455924;28;20063;-80
2023/11/07 05:04:41;;;;;;;1.85;0.70;;;;;;;7.83;87.29;99610.25;10458198;28;20053;-80
2023/11/07 05:09:44;;;;;;;3.38;0.88;;;;;;;8.21;86.01;99606.25;10459041;28;20040;-78
2023/11/07 05:14:49;;;;;;;2.03;0.40;;;;;;;8.10;86.89;99607.13;10497877;28;20601;-78
2023/11/07 05:19:52;;;;;;;3.35;1.02;;;;;;;8.11;86.93;99613.34;10486007;28;20147;-78
2023/11/07 05:24:56;;;;;;;1.30;0.50;;;;;;;8.05;86.53;99632.56;10477509;28;20075;-80
2023/11/07 05:30:00;;;;;;;1.90;0.60;;;;;;;7.97;87.38;99625.16;10474477;28;20049;-80
2023/11/07 05:35:04;;;;;;;2.92;0.98;;;;;;;8.27;85.82;99627.13;10467498;28;20056;-81
2023/11/07 05:40:13;;;;;;;2.05;0.88;;;;;;;8.27;84.73;99634.31;10472672;28;20064;-78
2023/11/07 05:45:18;;;;;;;5.55;0.70;;;;;;;8.23;85.58;99627.50;10468563;28;20048;-80
2023/11/07 05:50:25;;;;;;;2.60;1.00;;;;;;;8.12;85.79;99644.47;10464394;28;20044;-80
2023/11/07 05:55:28;;;;;;;3.40;0.90;;;;;;;8.29;84.77;99643.06;10465345;28;20062;-80
2023/11/07 06:00:33;;;;;;;3.45;0.80;;;;;;;8.25;84.65;99649.63;10461825;28;20051;-80
2023/11/07 06:05:36;;;;;;;6.13;0.85;;;;;;;8.05;85.75;99654.81;10455188;28;20056;-79
2023/11/07 06:10:39;;;;;;;6.15;0.88;;;;;;;8.48;83.24;99642.41;10459960;28;20049;-79
2023/11/07 06:15:44;;;;;;;4.78;1.00;;;;;;;8.52;83.15;99647.38;10460872;28;20056;-78
2023/11/07 06:20:47;;;;;;;4.07;0.80;;;;;;;8.38;83.52;99666.38;10465523;28;20053;-79
2023/11/07 06:25:50;;;;;;;5.13;0.82;;;;;;;8.62;83.03;99658.16;10469897;28;20420;-79
2023/11/07 06:30:54;;;;;;;4.40;1.20;;;;;;;8.52;82.82;99662.59;10466056;28;20048;-79
2023/11/07 06:35:57;;;;;;;5.57;0.70;;;;;;;8.34;83.15;99662.28;10457153;28;20056;-78
2023/11/07 06:41:00;;;;;;;3.58;1.08;;;;;;;8.51;82.73;99672.44;10458115;28;20225;-80
2023/11/07 06:46:04;;;;;;;2.28;1.13;;;;;;;8.69;82.12;99682.56;10466901;28;20047;-79
2023/11/07 06:51:07;;;;;;;2.53;1.17;;;;;;;8.43;83.06;99684.75;10467812;28;21247;-79
2023/11/07 06:56:10;;;;;;;1.65;0.90;;;;;;;8.65;82.19;99682.00;10471467;28;20053;-80
2023/11/07 07:01:15;;;;;;;1.27;0.73;;;;;;;8.57;82.53;99695.16;10466323;28;20059;-79
2023/11/07 07:06:21;;;;;;;2.65;0.90;;;;;;;8.56;81.93;99693.47;10466403;28;21165;-79
2023/11/07 07:11:24;;;;;;;2.83;0.70;;;;;;;8.69;81.28;99695.97;10463975;28;21229;-79
2023/11/07 07:16:30;;;;;;;4.03;0.93;;;;;;;8.69;81.18;99691.44;10466480;28;20123;-80
2023/11/07 07:21:35;;;;;;;1.08;0.60;;;;;;;8.56;82.03;99699.69;10459435;28;20104;-79
2023/11/07 07:26:39;;;;;;;3.53;0.70;;;;;;;8.70;80.78;99693.16;10472181;28;20041;-78
2023/11/07 07:31:45;;;;;;;3.58;1.13;;;;;;;8.72;81.04;99698.38;10491055;28;20049;-80
2023/11/07 07:36:50;;;;;;;4.05;0.80;;;;;;;8.67;80.51;99706.81;10470529;28;20435;-79
2023/11/07 07:41:54;;;;;;;1.77;0.82;;;;;;;9.28;78.18;99696.22;10475374;28;20044;-79
2023/11/07 07:46:58;;;;;;;3.15;0.95;;;;;;;9.36;77.21;99705.44;10462942;28;20045;-80
2023/11/07 07:52:01;;;;;;;2.20;0.85;;;;;;;9.68;75.33;99708.84;10462880;28;20052;-79
2023/11/07 07:57:08;;;;;;;4.10;0.70;;;;;;;9.82;74.41;99714.78;10497359;28;20045;-78
2023/11/07 08:02:12;;;;;;;1.08;0.70;;;;;;;9.63;74.97;99720.97;10497309;28;20234;-79
2023/11/07 08:07:16;;;;;;;0.80;0.52;;;;;;;9.24;77.04;99726.09;10457238;28;20056;-80
2023/11/07 08:12:21;;;;;;;1.60;0.60;;;;;;;9.28;77.68;99732.91;10466898;28;20727;-79
2023/11/07 08:17:25;;;;;;;2.25;0.85;;;;;;;9.32;78.19;99728.13;10468477;28;20058;-79
2023/11/07 08:22:28;;;;;;;4.82;1.10;;;;;;;9.46;77.31;99725.09;10461737;28;20052;-78
2023/11/07 08:27:32;;;;;;;6.15;0.70;;;;;;;9.67;76.01;99731.25;10458013;28;20056;-78
2023/11/07 08:32:36;;;;;;;2.25;0.93;;;;;;;9.86;74.39;99727.00;10459002;28;20048;-79
2023/11/07 08:37:40;;;;;;;3.17;0.73;;;;;;;10.08;73.67;99728.63;10463253;28;20055;-80
2023/11/07 08:42:43;;;;;;;2.45;0.73;;;;;;;10.35;72.72;99739.56;10457522;28;20045;-79
2023/11/07 08:47:50;;;;;;;6.88;0.98;;;;;;;9.95;73.93;99750.31;10458038;28;20059;-80
2023/11/07 08:52:55;;;;;;;1.40;0.75;;;;;;;10.04;74.28;99751.31;10462904;28;20045;-78
2023/11/07 08:57:58;;;;;;;3.50;1.00;;;;;;;9.78;75.59;99741.03;10457936;28;20048;-79
2023/11/07 09:03:02;;;;;;;1.98;0.60;;;;;;;10.01;74.94;99740.88;10467999;28;20048;-79
2023/11/07 09:08:06;;;;;;;0.90;0.68;;;;;;;10.67;71.57;99743.84;10485195;28;20068;-80
2023/11/07 09:13:10;;;;;;;2.92;0.80;;;;;;;10.42;73.30;99755.09;10469386;28;20060;-80
2023/11/07 09:18:15;;;;;;;2.97;0.88;;;;;;;11.15;70.50;99734.94;10471603;28;20048;-80
2023/11/07 09:23:18;;;;;;;1.70;0.80;;;;;;;10.63;72.22;99746.94;10456670;28;20045;-79
2023/11/07 09:28:21;;;;;;;3.30;1.02;;;;;;;10.50;72.76;99749.88;10482357;28;20048;-80
2023/11/07 09:33:26;;;;;;;1.50;0.95;;;;;;;10.29;74.99;99761.59;10469773;28;20143;-79
2023/11/07 09:38:29;;;;;;;4.63;1.00;;;;;;;10.30;74.24;99754.38;10473601;28;20048;-78
2023/11/07 09:43:49;;;;;;;2.20;1.10;;;;;;;9.77;76.12;99766.19;10487122;28;20041;-77
2023/11/07 09:48:55;;;;;;;1.55;0.90;;;;;;;9.67;77.32;99765.28;10465115;28;20078;-79
2023/11/07 09:54:00;;;;;;;2.03;0.98;;;;;;;9.70;77.82;99759.63;10467388;28;20048;-81
2023/11/07 09:59:15;;;;;;;3.13;1.00;;;;;;;10.09;76.40;99765.19;10464478;28;20895;-78
2023/11/07 10:04:24;;;;;;;1.20;0.80;;;;;;;10.02;75.60;99769.41;10468060;28;20060;-79
2023/11/07 10:09:32;;;;;;;2.22;1.00;;;;;;;9.88;76.93;99774.16;10459416;28;20044;-79
2023/11/07 10:14:35;;;;;;;3.13;1.08;;;;;;;10.07;76.84;99762.66;10460020;28;20048;-78
2023/11/07 10:19:39;;;;;;;2.85;1.00;;;;;;;10.38;75.34;99774.19;10456126;28;20068;-80
2023/11/07 10:24:45;;;;;;;2.17;1.20;;;;;;;9.78;77.94;99769.69;10459193;28;20049;-78
2023/11/07 10:29:52;;;;;;;2.50;1.15;;;;;;;10.07;77.16;99772.56;10472608;28;20048;-77
2023/11/07 10:35:05;;;;;;;2.17;1.10;;;;;;;10.16;76.16;99785.13;10476982;28;20200;-78
2023/11/07 10:40:11;;;;;;;3.53;1.23;;;;;;;9.95;77.62;99769.09;10454678;28;20049;-79
2023/11/07 10:45:17;;;;;;;2.35;0.80;;;;;;;10.13;76.86;99764.78;10466567;28;20056;-79
2023/11/07 10:50:22;;;;;;;2.42;1.00;;;;;;;9.93;77.56;99760.34;10457375;28;20044;-78
2023/11/07 10:55:25;;;;;;;1.42;1.15;;;;;;;9.71;78.55;99764.88;10464969;28;20052;-79
2023/11/07 11:00:32;;;;;;;4.70;1.15;;;;;;;9.57;81.20;99759.88;10477766;28;20055;-79
2023/11/07 11:05:40;;;;;;;3.15;1.08;;;;;;;10.04;76.58;99762.06;10481822;28;20078;-78
2023/11/07 11:10:45;;;;;;;2.88;1.17;;;;;;;10.32;77.02;99752.41;10468910;28;21800;-78
2023/11/07 11:15:49;;;;;;;2.70;1.00;;;;;;;11.85;68.32;99740.81;10481667;28;20055;-77
2023/11/07 11:21:02;;;;;;;2.05;0.77;;;;;;;12.17;65.90;99726.91;10490324;28;20171;-79
2023/11/07 11:26:16;;;;;;;1.48;0.80;;;;;;;10.84;68.23;99723.47;10455396;28;20044;-80
2023/11/07 11:31:21;;;;;;;4.78;1.25;;;;;;;9.87;77.97;99742.97;10446991;28;20072;-79
2023/11/07 11:36:37;;;;;;;3.90;1.45;;;;;;;8.21;100.00;99753.41;10445811;28;20124;-77
2023/11/07 11:41:55;;;;;;;1.88;1.30;;;;;;;7.56;100.00;99746.97;10435165;28;21292;-78
2023/11/07 11:46:59;;;;;;;4.25;1.73;;;;;;;7.22;100.00;99759.47;10446099;28;20045;-79
2023/11/07 11:52:24;;;;;;;2.38;2.17;;;;;;;7.75;100.00;99751.72;10474881;28;20731;-77
2023/11/07 11:57:27;;;;;;;6.90;2.40;;;;;;;8.59;100.00;99746.75;10454201;28;20044;-80
2023/11/07 12:02:39;;;;;;;4.32;1.77;;;;;;;9.43;99.32;99749.47;10456567;28;20095;-80
2023/11/07 12:07:45;;;;;;;3.30;1.58;;;;;;;8.90;95.66;99742.38;10453387;28;20052;-80
2023/11/07 12:12:57;;;;;;;4.28;1.65;;;;;;;8.80;97.39;99742.31;10454053;28;20044;-79
2023/11/07 12:18:03;;;;;;;4.13;1.52;;;;;;;8.69;95.15;99736.97;10465087;28;20045;-78
2023/11/07 12:23:12;;;;;;;1.38;1.20;;;;;;;8.26;98.11;99743.19;10472015;28;20157;-79
2023/11/07 12:28:20;;;;;;;1.48;1.20;;;;;;;7.60;99.36;99736.94;10476429;28;20058;-79
2023/11/07 12:33:23;;;;;;;4.53;2.00;;;;;;;8.29;100.00;99729.53;10475035;28;20491;-78
2023/11/07 12:38:28;;;;;;;1.75;1.65;;;;;;;9.71;95.71;99729.19;10476826;28;20044;-78
2023/11/07 12:43:37;;;;;;;4.00;1.70;;;;;;;10.15;88.35;99719.88;10471662;28;20142;-77
2023/11/07 12:48:41;;;;;;;3.97;2.30;;;;;;;10.50;85.66;99710.44;10474625;28;20040;-77
2023/11/07 12:53:49;;;;;;;1.85;1.33;;;;;;;10.34;80.50;99718.22;10464369;28;20363;-78
2023/11/07 12:58:52;;;;;;;1.85;1.10;;;;;;;10.63;76.89;99728.16;10484231;28;20049;-77
2023/11/07 13:03:54;;;;;;;1.27;1.17;;;;;;;9.98;78.50;99720.53;10481407;28;20151;-78
2023/11/07 13:09:13;;;;;;;2.60;0.90;;;;;;;9.55;79.17;99729.66;10483176;28;20044;-78
2023/11/07 13:14:18;;;;;;;4.85;1.90;;;;;;;10.56;78.85;99719.81;10465757;28;20084;-78
2023/11/07 13:19:21;;;;;;;6.78;2.35;;;;;;;10.84;74.69;99731.53;10468155;28;20055;-78
2023/11/07 13:24:26;;;;;;;2.85;1.55;;;;;;;10.94;72.38;99710.03;10466191;28;21454;-79
2023/11/07 13:29:30;;;;;;;3.03;1.35;;;;;;;10.63;73.00;99718.25;10467954;28;20041;-78
2023/11/07 13:34:33;;;;;;;2.75;1.77;;;;;;;10.78;72.04;99726.75;10463738;28;20056;-79
2023/11/07 13:39:42;;;;;;;3.42;2.08;;;;;;;11.53;70.49;99727.78;10465340;28;20049;-80
2023/11/07 13:44:44;;;;;;;3.92;2.00;;;;;;;10.38;73.47;99728.53;10453798;28;20523;-81
2023/11/07 13:49:47;;;;;;;3.95;1.50;;;;;;;10.12;73.16;99733.59;10476996;28;20710;-79
2023/11/07 13:54:52;;;;;;;3.17;1.50;;;;;;;9.53;74.74;99749.53;10459998;28;20044;-78
2023/11/07 13:59:55;;;;;;;1.73;1.60;;;;;;;9.82;75.02;99726.41;10458886;28;20054;-77
2023/11/07 14:04:58;;;;;;;3.70;2.08;;;;;;;9.71;75.12;99729.19;10471424;28;20504;-79
2023/11/07 14:10:07;;;;;;;2.15;1.70;;;;;;;9.93;74.52;99744.25;10461980;28;20040;-78
2023/11/07 14:15:11;;;;;;;4.05;2.00;;;;;;;9.79;74.05;99726.66;10459465;28;20060;-78
2023/11/07 14:20:19;;;;;;;8.60;1.85;;;;;;;9.89;74.71;99740.13;10475529;28;20051;-76
2023/11/07 14:25:28;;;;;;;3.80;2.15;;;;;;;9.91;75.37;99741.69;10492133;28;20075;-80
2023/11/07 14:30:31;;;;;;;2.60;1.77;;;;;;;10.65;71.37;99737.75;10461233;28;20059;-79
2023/11/07 14:35:41;;;;;;;4.63;1.70;;;;;;;10.36;73.33;99751.97;10461307;28;20052;-77
2023/11/07 14:40:46;;;;;;;1.85;1.63;;;;;;;9.80;73.30;99738.25;10479633;28;20048;-77
2023/11/07 14:45:49;;;;;;;3.42;1.73;;;;;;;9.73;72.46;99757.53;10486661;28;20330;-79
2023/11/07 14:50:53;;;;;;;2.95;1.50;;;;;;;9.77;72.13;99759.97;10460103;28;20377;-79
2023/11/07 14:55:58;;;;;;;7.28;2.13;;;;;;;10.27;69.07;99754.66;10456069;28;20047;-78
2023/11/07 15:01:01;;;;;;;3.00;1.50;;;;;;;10.02;70.92;99745.28;10473549;28;20053;-77
2023/11/07 15:06:05;;;;;;;1.92;1.75;;;;;;;9.35;72.98;99743.94;10467768;28;20191;-78
2023/11/07 15:11:10;;;;;;;4.45;1.35;;;;;;;9.71;71.80;99750.63;10463775;28;20131;-78
2023/11/07 15:16:14;;;;;;;2.20;1.65;;;;;;;9.37;73.18;99771.47;10454842;28;20080;-78
2023/11/07 15:21:17;;;;;;;4.43;1.80;;;;;;;9.76;71.85;99777.03;10456567;28;20139;-79
2023/11/07 15:26:21;;;;;;;2.40;1.75;;;;;;;9.70;72.37;99767.69;10467665;28;20060;-78
2023/11/07 15:31:26;;;;;;;6.03;2.05;;;;;;;9.43;73.64;99762.88;10459240;28;20048;-78
2023/11/07 15:36:29;;;;;;;5.03;1.95;;;;;;;9.23;74.37;99767.28;10454410;28;20036;-77
2023/11/07 15:41:33;;;;;;;3.40;2.10;;;;;;;9.15;74.81;99781.31;10487585;28;20075;-78
2023/11/07 15:46:39;;;;;;;3.72;2.35;;;;;;;9.12;74.84;99776.22;10461780;28;20060;-79
2023/11/07 15:51:42;;;;;;;2.50;2.30;;;;;;;8.98;76.27;99790.78;10459594;28;20056;-78
2023/11/07 15:56:48;;;;;;;2.63;2.10;;;;;;;9.03;76.10;99799.28;10466981;28;20045;-78
2023/11/07 16:01:51;;;;;;;6.90;2.28;;;;;;;9.22;75.71;99801.28;10464081;28;20071;-79
2023/11/07 16:06:54;;;;;;;4.63;2.35;;;;;;;9.06;76.48;99807.06;10463180;28;21216;-79
2023/11/07 16:11:58;;;;;;;6.43;3.00;;;;;;;9.25;75.91;99802.84;10480105;28;20041;-77
2023/11/07 16:17:01;;;;;;;3.97;3.10;;;;;;;9.35;75.66;99809.13;10466064;28;20047;-78
2023/11/07 16:22:05;;;;;;;7.22;3.10;;;;;;;9.19;76.21;99812.25;10453701;28;20625;-78
2023/11/07 16:27:09;;;;;;;3.53;2.85;;;;;;;9.15;76.28;99804.59;10456950;28;20049;-77
2023/11/07 16:32:14;;;;;;;3.55;2.95;;;;;;;9.11;76.86;99812.03;10457899;28;20549;-78
2023/11/07 16:37:18;;;;;;;5.07;2.80;;;;;;;9.00;77.30;99815.63;10461158;28;20702;-79
2023/11/07 16:42:22;;;;;;;4.90;2.92;;;;;;;9.10;77.14;99823.72;10453446;28;20045;-79
2023/11/07 16:47:25;;;;;;;4.55;2.78;;;;;;;8.93;78.19;99830.50;10456226;28;20047;-78
2023/11/07 16:52:29;;;;;;;5.95;3.22;;;;;;;8.53;79.75;99830.22;10454453;28;20040;-80
2023/11/07 16:57:33;;;;;;;9.07;3.10;;;;;;;8.73;79.25;99833.97;10472997;28;20380;-79
2023/11/07 17:02:37;;;;;;;4.72;2.85;;;;;;;8.75;78.17;99832.00;10484134;28;20104;-79
2023/11/07 17:07:40;;;;;;;3.88;3.00;;;;;;;8.78;78.22;99832.63;10469195;28;20047;-79
2023/11/07 17:12:45;;;;;;;5.90;3.00;;;;;;;8.78;78.56;99837.97;10467452;28;21180;-79
2023/11/07 17:17:50;;;;;;;7.20;3.10;;;;;;;8.81;78.43;99840.41;10467245;28;20052;-79
2023/11/07 17:22:54;;;;;;;5.72;3.30;;;;;;;8.78;78.73;99842.50;10455954;28;20515;-78
2023/11/07 17:27:58;;;;;;;3.80;3.17;;;;;;;8.76;78.84;99836.41;10436691;28;20052;-79
2023/11/07 17:33:01;;;;;;;7.35;3.75;;;;;;;8.81;79.37;99851.13;10450699;28;20127;-78
2023/11/07 17:38:04;;;;;;;4.95;3.83;;;;;;;8.71;79.63;99852.00;10453315;28;20102;-78
2023/11/07 17:43:08;;;;;;;5.72;3.88;;;;;;;8.57;80.69;99856.63;10451634;28;20998;-78
2023/11/07 17:48:11;;;;;;;7.82;4.30;;;;;;;8.79;79.96;99850.38;10446078;28;20689;-78
2023/11/07 17:53:14;;;;;;;6.93;4.10;;;;;;;8.81;80.69;99852.94;10452545;28;20044;-77
2023/11/07 17:58:19;;;;;;;9.38;4.03;;;;;;;8.95;79.73;99855.34;10445060;28;20118;-79
2023/11/07 18:03:22;;;;;;;9.05;5.07;;;;;;;8.87;79.88;99863.16;10458654;28;20044;-79
2023/11/07 18:08:25;;;;;;;10.75;6.50;;;;;;;8.74;80.72;99862.44;10462775;28;20437;-79
2023/11/07 18:13:30;;;;;;;7.60;5.35;;;;;;;8.52;81.58;99842.78;10477303;28;20854;-79
2023/11/07 18:18:33;;;;;;;11.32;5.43;;;;;;;8.31;82.53;99844.47;10458263;28;20041;-79
2023/11/07 18:23:38;;;;;;;7.00;4.47;;;;;;;8.23;82.84;99852.25;10470024;28;21255;-77
2023/11/07 18:28:42;;;;;;;7.78;4.00;;;;;;;8.10;83.21;99879.16;10460827;28;20045;-78
2023/11/07 18:33:48;;;;;;;5.13;4.22;;;;;;;8.36;82.02;99855.66;10444380;28;20055;-78
2023/11/07 18:38:52;;;;;;;6.00;4.40;;;;;;;8.20;82.17;99842.69;10442579;28;20113;-79
2023/11/07 18:43:57;;;;;;;8.38;4.75;;;;;;;8.07;83.20;99858.84;10446848;28;20052;-78
2023/11/07 18:48:59;;;;;;;7.75;4.05;;;;;;;8.01;82.82;99861.13;10446497;28;20508;-78
2023/11/07 18:54:03;;;;;;;5.00;3.20;;;;;;;7.60;84.93;99858.06;10441563;28;20496;-77
2023/11/07 18:59:08;;;;;;;7.70;3.80;;;;;;;8.02;82.02;99866.38;10462144;28;20052;-77
2023/11/07 19:04:11;;;;;;;14.88;4.68;;;;;;;8.17;81.42;99869.66;10460337;28;20051;-79
2023/11/07 19:09:14;;;;;;;7.35;4.65;;;;;;;8.32;80.26;99872.94;10456225;28;20048;-78
2023/11/07 19:14:19;;;;;;;6.43;3.58;;;;;;;8.20;80.62;99861.41;10471254;28;21096;-78
2023/11/07 19:19:23;;;;;;;7.68;3.60;;;;;;;8.13;81.33;99866.38;10463662;28;20128;-78
2023/11/07 19:24:27;;;;;;;6.07;3.70;;;;;;;7.98;82.69;99866.72;10466401;28;20054;-78
2023/11/07 19:29:32;;;;;;;7.65;2.60;;;;;;;7.72;83.20;99862.44;10459219;28;20045;-78
2023/11/07 19:34:35;;;;;;;5.60;3.00;;;;;;;8.07;82.06;99861.50;10459148;28;20043;-78
2023/11/07 19:39:38;;;;;;;3.80;2.75;;;;;;;8.04;81.16;99864.44;10454759;28;20755;-78
2023/11/07 19:44:43;;;;;;;8.68;2.63;;;;;;;8.07;79.92;99863.34;10449004;28;20153;-78
2023/11/07 19:49:46;;;;;;;6.63;2.58;;;;;;;7.82;81.09;99875.97;10450461;28;21182;-78
2023/11/07 19:54:50;;;;;;;3.97;1.30;;;;;;;7.62;81.46;99884.66;10457654;28;20083;-78
2023/11/07 19:59:54;;;;;;;4.80;2.38;;;;;;;7.91;80.13;99885.94;10462096;28;20056;-78
2023/11/07 20:04:58;;;;;;;4.45;2.60;;;;;;;8.02;79.14;99861.00;10451690;28;20072;-77
2023/11/07 20:10:01;;;;;;;4.45;2.33;;;;;;;7.78;80.11;99871.81;10451005;28;20534;-79
2023/11/07 20:15:07;;;;;;;3.30;2.47;;;;;;;7.95;79.52;99891.88;10455251;28;20424;-78
2023/11/07 20:20:11;;;;;;;2.47;2.17;;;;;;;7.65;80.90;99879.94;10448645;28;20427;-79
2023/11/07 20:25:14;;;;;;;3.38;1.83;;;;;;;7.62;80.73;99882.81;10447057;28;20044;-78
2023/11/07 20:30:18;;;;;;;3.45;2.42;;;;;;;7.91;79.52;99879.72;10455906;28;20183;-79
2023/11/07 20:35:21;;;;;;;10.73;2.97;;;;;;;7.71;80.58;99882.13;10455216;28;20848;-79
2023/11/07 20:40:26;;;;;;;5.50;2.30;;;;;;;7.28;82.79;99890.72;10457725;28;21172;-77
2023/11/07 20:45:32;;;;;;;7.57;3.25;;;;;;;7.48;81.80;99886.53;10460355;28;21782;-78
2023/11/07 20:50:35;;;;;;;6.78;3.33;;;;;;;7.52;81.78;99892.53;10446968;28;20127;-79
2023/11/07 20:55:38;;;;;;;5.50;2.92;;;;;;;7.60;81.34;99890.13;10450145;28;20040;-79
2023/11/07 21:00:43;;;;;;;7.60;3.22;;;;;;;7.57;81.74;99885.03;10457755;28;20186;-79
2023/11/07 21:05:46;;;;;;;6.32;3.50;;;;;;;7.49;82.08;99898.97;10452244;28;20048;-78
2023/11/07 21:10:49;;;;;;;4.53;2.80;;;;;;;7.34;82.25;99894.75;10436753;28;20332;-78
2023/11/07 21:15:53;;;;;;;7.03;3.30;;;;;;;7.36;82.45;99884.81;10467210;28;20056;-80
2023/11/07 21:20:56;;;;;;;4.78;3.33;;;;;;;7.56;81.75;99875.28;10460746;28;20055;-79
2023/11/07 21:25:59;;;;;;;4.93;2.95;;;;;;;7.12;84.14;99875.97;10452265;28;20071;-77
2023/11/07 21:31:04;;;;;;;5.55;2.72;;;;;;;7.19;83.79;99878.06;10445070;28;20052;-78
2023/11/07 21:36:08;;;;;;;7.05;3.42;;;;;;;7.31;83.05;99880.78;10444526;28;20049;-77
2023/11/07 21:41:11;;;;;;;5.97;3.55;;;;;;;6.95;85.03;99887.91;10449220;28;20068;-78
2023/11/07 21:46:15;;;;;;;8.60;3.78;;;;;;;7.36;83.55;99881.31;10452331;28;20704;-78
2023/11/07 21:51:19;;;;;;;6.82;3.25;;;;;;;7.47;82.65;99878.66;10454068;28;20048;-77
2023/11/07 21:56:22;;;;;;;7.10;3.78;;;;;;;7.36;83.29;99871.47;10444809;28;20052;-77
2023/11/07 22:01:27;;;;;;;6.05;3.95;;;;;;;7.59;82.00;99875.03;10450453;28;20055;-77
2023/11/07 22:06:31;;;;;;;7.30;3.95;;;;;;;7.08;84.38;99883.38;10464812;28;20079;-77
2023/11/07 22:11:34;;;;;;;8.55;3.90;;;;;;;7.47;83.13;99867.97;10452251;28;20592;-78
2023/11/07 22:16:38;;;;;;;3.83;3.03;;;;;;;7.31;83.48;99873.63;10448140;28;21391;-77
2023/11/07 22:21:41;;;;;;;5.68;4.00;;;;;;;7.60;82.50;99876.75;10442701;28;20523;-77
2023/11/07 22:26:44;;;;;;;5.30;3.25;;;;;;;7.41;83.51;99888.00;10448459;28;20048;-77
2023/11/07 22:31:49;;;;;;;6.55;3.90;;;;;;;7.62;82.61;99882.81;10445308;28;20059;-77
2023/11/07 22:36:51;;;;;;;9.10;3.60;;;;;;;7.58;82.25;99875.19;10434914;28;20044;-77
2023/11/07 22:41:55;;;;;;;5.38;3.10;;;;;;;7.36;84.45;99882.16;10444775;28;20044;-77
2023/11/07 22:47:00;;;;;;;7.88;3.03;;;;;;;7.40;83.91;99880.09;10472328;28;20063;-78
2023/11/07 22:52:03;;;;;;;7.55;2.72;;;;;;;7.70;82.56;99877.72;10456050;28;20118;-77
2023/11/07 22:57:06;;;;;;;8.35;3.05;;;;;;;7.91;81.04;99887.75;10450402;28;20052;-76
2023/11/07 23:02:11;;;;;;;9.23;2.95;;;;;;;7.47;84.13;99892.03;10452579;28;20068;-77
2023/11/07 23:07:14;;;;;;;6.63;3.25;;;;;;;7.71;82.62;99894.66;10453422;28;20052;-77
2023/11/07 23:12:17;;;;;;;5.03;3.20;;;;;;;7.62;82.85;99908.69;10453570;28;20052;-77
2023/11/07 23:17:21;;;;;;;7.78;3.03;;;;;;;7.65;82.81;99895.09;10446380;28;20718;-79
2023/11/07 23:22:24;;;;;;;7.07;3.17;;;;;;;7.78;82.56;99890.53;10435821;28;20048;-78
2023/11/07 23:27:27;;;;;;;5.65;2.58;;;;;;;7.80;82.07;99888.59;10433882;28;20078;-77
2023/11/07 23:32:31;;;;;;;6.38;3.17;;;;;;;7.42;83.72;99894.19;10438358;28;20057;-77
2023/11/07 23:37:34;;;;;;;8.93;3.33;;;;;;;7.74;82.43;99889.06;10447996;28;20060;-77
2023/11/07 23:42:38;;;;;;;7.38;3.20;;;;;;;7.25;84.55;99893.63;10438932;28;20045;-78
2023/11/07 23:47:43;;;;;;;8.25;4.20;;;;;;;7.52;83.63;99894.34;10442297;28;20052;-77